Tarifa, Spain
Current Conditions -  °F | °C
As of 1:30 AM on Thursday 18 Dec 2014 (Local Time) from LEAG Reporting Station
Clear Clear  
Wind Chill: 57°   Ceiling: Unl
Heat Index: 57°   Visibility: 6mi
Dew Point: 46°   Wind: 3mph
Humidity: 67%   Direction: 200°SSW
Pressure: 30.27"   Gusts: NA
Location:  36.01°N, 5.6°W
Report Text: LEAG 180030Z AUTO 20003KT 120V270 CAVOK 14/08 Q1025
Loading
Personal Weather Stations






























Interactive Weather Map New forecast layout! Learn more

10-Day Weather Forecast

Advertisements
Track Severe Weather on mobile